createdAt,value
2022-10-08T00:02:47.224Z,100.00
2022-10-08T00:05:23.789Z,100.00
2022-10-08T00:07:57.832Z,100.00
2022-10-08T00:10:25.710Z,100.00
2022-10-08T00:12:54.672Z,100.00
2022-10-08T00:15:21.406Z,100.00
2022-10-08T00:17:49.217Z,100.00
2022-10-08T00:20:17.421Z,100.00
2022-10-08T00:22:44.757Z,100.00
2022-10-08T00:25:11.996Z,100.00
2022-10-08T00:27:39.859Z,100.00
2022-10-08T00:30:07.955Z,100.00
2022-10-08T00:32:36.706Z,100.00
2022-10-08T00:35:04.823Z,100.00
2022-10-08T00:37:38.833Z,100.00
2022-10-08T00:40:07.971Z,100.00
2022-10-08T00:42:34.912Z,100.00
2022-10-08T00:45:02.077Z,100.00
2022-10-08T00:47:29.901Z,100.00
2022-10-08T00:49:59.385Z,100.00
2022-10-08T00:52:29.056Z,100.00
2022-10-08T00:54:57.603Z,100.00
2022-10-08T00:57:24.569Z,100.00
2022-10-08T00:59:51.452Z,100.00
2022-10-08T01:02:19.721Z,100.00
2022-10-08T01:04:47.585Z,100.00
2022-10-08T01:07:35.162Z,100.00
2022-10-08T01:10:11.174Z,100.00
2022-10-08T01:13:02.352Z,100.00
2022-10-08T01:15:33.968Z,100.00
2022-10-08T01:18:12.429Z,100.00
2022-10-08T01:20:59.453Z,100.00
2022-10-08T01:23:29.008Z,100.00
2022-10-08T01:26:14.706Z,100.00
2022-10-08T01:29:03.233Z,100.00
2022-10-08T01:31:34.223Z,100.00
2022-10-08T01:34:08.229Z,100.00
2022-10-08T01:36:38.942Z,100.00
2022-10-08T01:39:11.156Z,100.00
2022-10-08T01:41:46.613Z,100.00
2022-10-08T01:44:18.327Z,100.00
2022-10-08T01:46:53.559Z,100.00
2022-10-08T01:49:32.070Z,100.00
2022-10-08T01:52:04.838Z,100.00
2022-10-08T01:54:33.523Z,100.00
2022-10-08T01:57:03.427Z,100.00
2022-10-08T01:59:53.364Z,100.00
2022-10-08T02:02:25.466Z,100.00
2022-10-08T02:04:54.256Z,100.00
2022-10-08T02:07:26.071Z,100.00
2022-10-08T02:10:09.023Z,100.00
2022-10-08T02:12:36.445Z,100.00
2022-10-08T02:15:04.783Z,100.00
2022-10-08T02:17:46.538Z,100.00
2022-10-08T02:20:22.624Z,100.00
2022-10-08T02:23:01.808Z,100.00
2022-10-08T02:25:37.488Z,100.00
2022-10-08T02:28:30.396Z,100.00
2022-10-08T02:31:17.257Z,100.00
2022-10-08T02:33:47.258Z,100.00
2022-10-08T02:36:16.904Z,100.00
2022-10-08T02:38:52.106Z,100.00
2022-10-08T02:41:26.819Z,100.00
2022-10-08T02:43:53.736Z,100.00
2022-10-08T02:46:22.678Z,100.00
2022-10-08T02:48:57.804Z,100.00
2022-10-08T02:51:25.464Z,100.00
2022-10-08T02:53:52.886Z,100.00
2022-10-08T02:56:33.569Z,100.00
2022-10-08T02:59:01.805Z,100.00
2022-10-08T03:01:35.907Z,100.00
2022-10-08T03:04:23.138Z,100.00
2022-10-08T03:06:52.065Z,100.00
2022-10-08T03:09:29.638Z,100.00
2022-10-08T03:12:34.697Z,100.00
2022-10-08T03:15:02.523Z,100.00
2022-10-08T03:17:47.871Z,100.00
2022-10-08T03:20:15.357Z,100.00
2022-10-08T03:22:43.468Z,100.00
2022-10-08T03:25:10.301Z,100.00
2022-10-08T03:27:37.144Z,100.00
2022-10-08T03:30:04.490Z,100.00
2022-10-08T03:32:40.476Z,100.00
2022-10-08T03:35:16.546Z,100.00
2022-10-08T03:37:43.498Z,100.00
2022-10-08T03:40:16.188Z,100.00
2022-10-08T03:42:44.170Z,100.00
2022-10-08T03:45:11.324Z,100.00
2022-10-08T03:47:39.301Z,100.00
2022-10-08T03:50:11.380Z,100.00
2022-10-08T03:52:40.487Z,100.00
2022-10-08T03:55:09.559Z,100.00
2022-10-08T03:57:36.405Z,100.00
2022-10-08T04:00:03.897Z,100.00
2022-10-08T04:02:32.907Z,100.00
2022-10-08T04:05:01.505Z,100.00
2022-10-08T04:08:18.578Z,100.00
2022-10-08T04:10:52.454Z,100.00
2022-10-08T04:13:22.508Z,100.00
2022-10-08T04:15:51.801Z,99.97
2022-10-08T04:18:18.723Z,99.86
2022-10-08T04:20:51.603Z,99.60
2022-10-08T04:23:18.391Z,99.60
2022-10-08T04:26:15.382Z,99.83
2022-10-08T04:28:44.655Z,100.00
2022-10-08T04:31:17.059Z,100.00
2022-10-08T04:33:44.719Z,100.00
2022-10-08T04:36:14.986Z,100.00
2022-10-08T04:39:13.835Z,100.00
2022-10-08T04:41:40.732Z,100.00
2022-10-08T04:44:07.622Z,100.00
2022-10-08T04:46:42.723Z,100.00
2022-10-08T04:49:14.911Z,100.00
2022-10-08T04:51:41.790Z,100.00
2022-10-08T04:54:09.580Z,100.00
2022-10-08T04:56:36.874Z,100.00
2022-10-08T04:59:04.174Z,100.00
2022-10-08T05:01:33.098Z,100.00
2022-10-08T05:04:00.063Z,100.00
2022-10-08T05:06:29.484Z,100.00
2022-10-08T05:08:56.925Z,100.00
2022-10-08T05:11:24.785Z,100.00
2022-10-08T05:13:52.339Z,100.00
2022-10-08T05:16:20.074Z,100.00
2022-10-08T05:18:48.296Z,100.00
2022-10-08T05:21:16.337Z,100.00
2022-10-08T05:23:46.132Z,100.00
2022-10-08T05:26:13.048Z,100.00
2022-10-08T05:28:47.779Z,100.00
2022-10-08T05:31:18.027Z,100.00
2022-10-08T05:33:52.506Z,100.00
2022-10-08T05:36:30.091Z,100.00
2022-10-08T05:38:59.623Z,100.00
2022-10-08T05:41:33.597Z,100.00
2022-10-08T05:44:02.350Z,100.00
2022-10-08T05:46:41.585Z,100.00
2022-10-08T05:49:14.736Z,100.00
2022-10-08T05:51:49.202Z,100.00
2022-10-08T05:54:18.124Z,100.00
2022-10-08T05:56:45.270Z,100.00
2022-10-08T05:59:24.575Z,100.00
2022-10-08T06:01:52.611Z,100.00
2022-10-08T06:04:21.439Z,100.00
2022-10-08T06:06:51.510Z,100.00
2022-10-08T06:09:19.169Z,100.00
2022-10-08T06:11:48.368Z,100.00
2022-10-08T06:14:17.542Z,100.00
2022-10-08T06:16:44.505Z,100.00
2022-10-08T06:19:24.663Z,100.00
2022-10-08T06:22:01.394Z,100.00
2022-10-08T06:24:28.232Z,100.00
2022-10-08T06:26:56.026Z,100.00
2022-10-08T06:29:27.895Z,100.00
2022-10-08T06:31:58.915Z,99.82
2022-10-08T06:34:25.918Z,99.64
2022-10-08T06:36:52.834Z,99.39
2022-10-08T06:39:20.761Z,97.27
2022-10-08T06:41:53.877Z,97.39
2022-10-08T06:44:21.786Z,97.48
2022-10-08T06:46:50.749Z,96.84
2022-10-08T06:49:19.792Z,96.54
2022-10-08T06:51:53.481Z,96.11
2022-10-08T06:54:26.371Z,96.21
2022-10-08T06:56:56.137Z,96.17
2022-10-08T06:59:35.218Z,95.77
2022-10-08T07:02:07.211Z,95.99
2022-10-08T07:04:40.265Z,95.55
2022-10-08T07:07:09.209Z,96.04
2022-10-08T07:09:36.163Z,95.66
2022-10-08T07:12:21.910Z,95.37
2022-10-08T07:14:48.809Z,94.65
2022-10-08T07:17:16.612Z,95.02
2022-10-08T07:20:01.137Z,94.54
2022-10-08T07:22:28.102Z,93.81
2022-10-08T07:24:55.113Z,94.25
2022-10-08T07:27:31.193Z,94.04
2022-10-08T07:29:59.952Z,94.24
2022-10-08T07:32:27.752Z,93.90
2022-10-08T07:34:59.835Z,93.67
2022-10-08T07:37:37.143Z,93.94
2022-10-08T07:40:04.049Z,94.06
2022-10-08T07:42:38.057Z,92.13
2022-10-08T07:45:07.267Z,91.43
2022-10-08T07:47:46.617Z,91.29
2022-10-08T07:50:16.722Z,91.49
2022-10-08T07:52:43.663Z,90.08
2022-10-08T07:55:13.638Z,87.78
2022-10-08T07:57:42.586Z,87.70
2022-10-08T08:00:10.788Z,87.15
2022-10-08T08:02:48.243Z,87.85
2022-10-08T08:05:15.587Z,86.31
2022-10-08T08:08:00.611Z,84.50
2022-10-08T08:10:35.425Z,84.57
2022-10-08T08:13:12.450Z,85.26
2022-10-08T08:15:39.287Z,84.76
2022-10-08T08:18:06.114Z,83.37
2022-10-08T08:20:40.548Z,82.33
2022-10-08T08:23:08.573Z,81.64
2022-10-08T08:25:36.512Z,80.48
2022-10-08T08:28:03.425Z,80.03
2022-10-08T08:30:31.297Z,79.01
2022-10-08T08:32:58.199Z,80.60
2022-10-08T08:35:26.092Z,79.05
2022-10-08T08:37:58.765Z,79.36
2022-10-08T08:40:39.861Z,77.40
2022-10-08T08:43:08.132Z,76.33
2022-10-08T08:45:47.450Z,76.66
2022-10-08T08:48:25.554Z,76.60
2022-10-08T08:50:56.020Z,76.17
2022-10-08T08:53:24.029Z,76.73
2022-10-08T08:55:59.160Z,75.86
2022-10-08T08:58:35.110Z,75.84
2022-10-08T09:01:13.568Z,73.43
2022-10-08T09:03:48.536Z,69.39
2022-10-08T09:06:18.969Z,67.09
2022-10-08T09:08:50.794Z,68.82
2022-10-08T09:11:21.579Z,68.51
2022-10-08T09:13:48.353Z,68.23
2022-10-08T09:16:16.578Z,68.55
2022-10-08T09:18:52.088Z,69.42
2022-10-08T09:21:19.590Z,68.05
2022-10-08T09:23:47.553Z,67.40
2022-10-08T09:26:22.359Z,67.99
2022-10-08T09:28:50.634Z,65.88
2022-10-08T09:31:38.391Z,65.22
2022-10-08T09:34:06.351Z,65.72
2022-10-08T09:36:42.534Z,65.45
2022-10-08T09:39:38.635Z,68.49
2022-10-08T09:42:09.573Z,66.29
2022-10-08T09:44:43.490Z,67.96
2022-10-08T09:47:23.464Z,67.40
2022-10-08T09:50:05.192Z,68.00
2022-10-08T09:52:40.631Z,67.51
2022-10-08T09:55:12.245Z,68.17
2022-10-08T09:57:44.124Z,68.71
2022-10-08T10:00:33.164Z,67.14
2022-10-08T10:03:01.850Z,67.43
2022-10-08T10:05:36.436Z,67.01
2022-10-08T10:08:25.668Z,67.17
2022-10-08T10:10:52.531Z,67.19
2022-10-08T10:13:38.748Z,66.90
2022-10-08T10:16:13.313Z,65.88
2022-10-08T10:18:43.179Z,66.25
2022-10-08T10:21:16.409Z,66.48
2022-10-08T10:23:54.335Z,65.75
2022-10-08T10:26:27.916Z,65.61
2022-10-08T10:29:01.408Z,66.39
2022-10-08T10:31:35.948Z,66.84
2022-10-08T10:34:07.686Z,65.12
2022-10-08T10:36:42.381Z,64.83
2022-10-08T10:39:11.167Z,64.46
2022-10-08T10:41:43.458Z,63.61
2022-10-08T10:44:19.791Z,65.48
2022-10-08T10:46:49.901Z,65.22
2022-10-08T10:49:19.119Z,64.31
2022-10-08T10:51:58.453Z,64.39
2022-10-08T10:54:29.308Z,64.24
2022-10-08T10:57:01.254Z,64.35
2022-10-08T10:59:40.233Z,64.84
2022-10-08T11:02:12.242Z,62.27
2022-10-08T11:04:40.294Z,62.64
2022-10-08T11:07:19.285Z,62.10
2022-10-08T11:09:47.097Z,62.09
2022-10-08T11:12:34.143Z,61.01
2022-10-08T11:15:21.622Z,61.00
2022-10-08T11:17:58.453Z,58.68
2022-10-08T11:20:25.321Z,57.82
2022-10-08T11:23:12.027Z,56.97
2022-10-08T11:26:16.466Z,54.03
2022-10-08T11:29:07.973Z,53.18
2022-10-08T11:31:56.907Z,54.45
2022-10-08T11:34:32.424Z,53.50
2022-10-08T11:37:00.390Z,52.45
2022-10-08T11:39:31.376Z,54.00
2022-10-08T11:42:48.112Z,54.19
2022-10-08T11:45:35.706Z,52.59
2022-10-08T11:48:24.728Z,52.55
2022-10-08T11:50:54.618Z,53.49
2022-10-08T11:53:22.614Z,53.63
2022-10-08T11:56:03.213Z,53.64
2022-10-08T11:58:31.928Z,52.96
2022-10-08T12:01:08.205Z,53.98
2022-10-08T12:03:40.463Z,55.93
2022-10-08T12:06:27.120Z,55.44
2022-10-08T12:08:58.929Z,51.32
2022-10-08T12:11:37.734Z,47.61
2022-10-08T12:14:14.718Z,46.83
2022-10-08T12:17:00.195Z,45.48
2022-10-08T12:19:40.366Z,46.52
2022-10-08T12:22:08.183Z,47.54
2022-10-08T12:24:39.164Z,51.40
2022-10-08T12:27:22.067Z,51.41
2022-10-08T12:30:07.605Z,53.92
2022-10-08T12:32:54.667Z,55.20
2022-10-08T12:35:32.163Z,56.53
2022-10-08T12:38:05.174Z,56.57
2022-10-08T12:40:56.396Z,56.12
2022-10-08T12:43:36.064Z,54.55
2022-10-08T12:46:35.724Z,55.71
2022-10-08T12:49:32.090Z,59.10
2022-10-08T12:52:17.840Z,60.63
2022-10-08T12:54:58.831Z,62.93
2022-10-08T12:57:34.896Z,63.34
2022-10-08T13:00:11.475Z,63.48
2022-10-08T13:02:41.236Z,65.63
2022-10-08T13:05:39.394Z,64.13
2022-10-08T13:08:36.322Z,64.49
2022-10-08T13:11:11.075Z,64.63
2022-10-08T13:13:43.902Z,65.08
2022-10-08T13:16:21.530Z,65.61
2022-10-08T13:18:55.109Z,65.70
2022-10-08T13:21:26.320Z,65.84
2022-10-08T13:23:53.490Z,67.15
2022-10-08T13:26:39.517Z,67.71
2022-10-08T13:29:18.585Z,67.74
2022-10-08T13:31:48.637Z,66.30
2022-10-08T13:34:18.682Z,66.96
2022-10-08T13:36:53.692Z,67.46
2022-10-08T13:39:22.848Z,63.15
2022-10-08T13:41:55.045Z,61.65
2022-10-08T13:44:22.091Z,62.90
2022-10-08T13:46:49.953Z,63.15
2022-10-08T13:49:24.385Z,62.74
2022-10-08T13:51:53.639Z,62.25
2022-10-08T13:54:59.381Z,63.91
2022-10-08T13:57:26.306Z,64.25
2022-10-08T14:00:02.161Z,65.86
2022-10-08T14:02:36.076Z,64.55
2022-10-08T14:05:03.984Z,65.84
2022-10-08T14:07:33.022Z,65.74
2022-10-08T14:10:08.835Z,66.27
2022-10-08T14:13:03.317Z,66.96
2022-10-08T14:15:44.374Z,66.90
2022-10-08T14:18:12.366Z,68.34
2022-10-08T14:20:52.532Z,70.49
2022-10-08T14:23:20.501Z,70.99
2022-10-08T14:25:49.501Z,70.66
2022-10-08T14:28:16.457Z,70.98
2022-10-08T14:30:54.789Z,71.68
2022-10-08T14:33:21.635Z,71.03
2022-10-08T14:35:54.721Z,69.94
2022-10-08T14:38:21.735Z,69.37
2022-10-08T14:40:50.851Z,69.42
2022-10-08T14:43:27.520Z,70.70
2022-10-08T14:45:54.856Z,71.47
2022-10-08T14:48:39.897Z,70.59
2022-10-08T14:51:12.920Z,70.80
2022-10-08T14:53:54.151Z,70.51
2022-10-08T14:56:22.975Z,71.53
2022-10-08T14:58:55.882Z,72.17
2022-10-08T15:01:39.236Z,71.19
2022-10-08T15:04:41.357Z,71.57
2022-10-08T15:07:17.590Z,73.12
2022-10-08T15:09:51.456Z,73.95
2022-10-08T15:12:19.472Z,74.63
2022-10-08T15:14:48.333Z,75.32
2022-10-08T15:17:16.355Z,75.68
2022-10-08T15:19:43.229Z,77.28
2022-10-08T15:22:10.209Z,77.52
2022-10-08T15:24:37.113Z,78.36
2022-10-08T15:27:06.878Z,79.07
2022-10-08T15:29:34.713Z,79.79
2022-10-08T15:32:02.751Z,80.53
2022-10-08T15:34:30.668Z,81.80
2022-10-08T15:37:32.920Z,82.88
2022-10-08T15:39:59.798Z,83.49
2022-10-08T15:42:26.617Z,84.70
2022-10-08T15:44:53.988Z,84.99
2022-10-08T15:47:22.899Z,85.10
2022-10-08T15:49:51.862Z,83.72
2022-10-08T15:52:30.773Z,82.46
2022-10-08T15:55:28.915Z,82.57
2022-10-08T15:57:55.881Z,80.27
2022-10-08T16:00:40.792Z,80.04
2022-10-08T16:03:43.606Z,78.96
2022-10-08T16:06:22.269Z,79.02
2022-10-08T16:09:07.499Z,76.74
2022-10-08T16:11:55.682Z,77.15
2022-10-08T16:14:26.347Z,76.05
2022-10-08T16:16:58.884Z,75.89
2022-10-08T16:19:35.874Z,77.02
2022-10-08T16:22:02.675Z,77.83
2022-10-08T16:24:39.686Z,77.73
2022-10-08T16:27:08.735Z,77.96
2022-10-08T16:29:36.591Z,78.75
2022-10-08T16:32:41.362Z,78.41
2022-10-08T16:35:08.302Z,79.16
2022-10-08T16:38:03.771Z,79.54
2022-10-08T16:40:30.557Z,79.46
2022-10-08T16:43:00.518Z,78.31
2022-10-08T16:45:39.986Z,79.00
2022-10-08T16:48:08.612Z,79.40
2022-10-08T16:50:46.634Z,79.60
2022-10-08T16:53:13.888Z,80.15
2022-10-08T16:55:42.762Z,80.60
2022-10-08T16:58:15.841Z,81.64
2022-10-08T17:00:46.783Z,81.57
2022-10-08T17:03:14.655Z,81.42
2022-10-08T17:05:44.636Z,82.02
2022-10-08T17:08:11.425Z,82.13
2022-10-08T17:10:39.374Z,82.14
2022-10-08T17:13:06.667Z,82.80
2022-10-08T17:15:33.474Z,83.45
2022-10-08T17:18:00.329Z,83.18
2022-10-08T17:20:28.413Z,82.69
2022-10-08T17:22:59.290Z,82.96
2022-10-08T17:25:26.611Z,82.31
2022-10-08T17:27:54.997Z,81.46
2022-10-08T17:30:27.337Z,80.13
2022-10-08T17:32:56.065Z,79.52
2022-10-08T17:35:25.233Z,79.87
2022-10-08T17:37:56.292Z,79.78
2022-10-08T17:40:25.023Z,79.89
2022-10-08T17:43:20.892Z,80.26
2022-10-08T17:45:49.412Z,80.57
2022-10-08T17:48:16.376Z,81.46
2022-10-08T17:50:53.074Z,81.75
2022-10-08T17:53:19.929Z,82.78
2022-10-08T17:56:04.395Z,83.26
2022-10-08T17:58:38.065Z,83.49
2022-10-08T18:01:09.256Z,82.80
2022-10-08T18:03:38.271Z,81.84
2022-10-08T18:06:10.537Z,82.05
2022-10-08T18:08:37.892Z,82.25
2022-10-08T18:11:06.872Z,81.71
2022-10-08T18:13:38.125Z,81.50
2022-10-08T18:16:09.423Z,81.68
2022-10-08T18:18:37.776Z,81.17
2022-10-08T18:21:06.010Z,80.93
2022-10-08T18:23:34.247Z,80.89
2022-10-08T18:26:24.835Z,80.58
2022-10-08T18:28:53.198Z,81.28
2022-10-08T18:31:28.424Z,81.15
2022-10-08T18:34:07.784Z,79.36
2022-10-08T18:36:44.499Z,78.13
2022-10-08T18:39:18.413Z,76.88
2022-10-08T18:41:49.333Z,76.41
2022-10-08T18:44:24.605Z,76.28
2022-10-08T18:46:51.915Z,75.66
2022-10-08T18:49:19.963Z,72.37
2022-10-08T18:51:59.013Z,72.59
2022-10-08T18:54:26.150Z,72.37
2022-10-08T18:57:09.994Z,72.25
2022-10-08T18:59:37.920Z,71.09
2022-10-08T19:02:05.983Z,70.62
2022-10-08T19:04:33.131Z,70.83
2022-10-08T19:07:09.355Z,70.21
2022-10-08T19:09:37.402Z,69.53
2022-10-08T19:12:22.533Z,69.35
2022-10-08T19:14:52.423Z,68.54
2022-10-08T19:17:19.621Z,69.16
2022-10-08T19:19:47.891Z,70.20
2022-10-08T19:22:15.268Z,68.76
2022-10-08T19:24:58.776Z,68.80
2022-10-08T19:27:28.005Z,69.85
2022-10-08T19:30:01.452Z,69.55
2022-10-08T19:32:28.846Z,68.72
2022-10-08T19:34:56.553Z,68.84
2022-10-08T19:37:26.837Z,68.73
2022-10-08T19:39:59.562Z,69.17
2022-10-08T19:42:26.851Z,69.43
2022-10-08T19:44:57.666Z,70.13
2022-10-08T19:47:28.497Z,69.76
2022-10-08T19:50:04.086Z,69.93
2022-10-08T19:52:32.894Z,69.40
2022-10-08T19:55:09.316Z,69.71
2022-10-08T19:57:49.545Z,68.81
2022-10-08T20:00:16.722Z,69.85
2022-10-08T20:02:43.598Z,69.37
2022-10-08T20:05:10.703Z,69.47
2022-10-08T20:07:43.577Z,68.99
2022-10-08T20:10:19.587Z,69.10
2022-10-08T20:12:47.388Z,69.47
2022-10-08T20:15:14.479Z,69.93
2022-10-08T20:17:43.312Z,70.46
2022-10-08T20:20:31.839Z,70.34
2022-10-08T20:22:58.030Z,70.67
2022-10-08T20:25:25.202Z,70.79
2022-10-08T20:27:52.405Z,71.55
2022-10-08T20:30:19.392Z,71.47
2022-10-08T20:32:46.490Z,71.80
2022-10-08T20:35:27.897Z,72.25
2022-10-08T20:37:54.900Z,71.94
2022-10-08T20:40:26.791Z,72.61
2022-10-08T20:42:53.699Z,73.35
2022-10-08T20:45:20.667Z,73.50
2022-10-08T20:48:18.063Z,74.37
2022-10-08T20:50:46.969Z,74.48
2022-10-08T20:53:48.878Z,75.02
2022-10-08T20:56:40.558Z,75.16
2022-10-08T20:59:08.222Z,75.77
2022-10-08T21:01:38.591Z,75.85
2022-10-08T21:04:12.722Z,76.15
2022-10-08T21:07:08.243Z,76.24
2022-10-08T21:09:37.199Z,76.22
2022-10-08T21:12:12.229Z,76.75
2022-10-08T21:14:39.246Z,76.88
2022-10-08T21:17:06.277Z,76.71
2022-10-08T21:19:34.178Z,76.77
2022-10-08T21:22:01.267Z,77.00
2022-10-08T21:24:28.224Z,76.86
2022-10-08T21:26:55.219Z,77.17
2022-10-08T21:29:23.332Z,76.91
2022-10-08T21:31:51.195Z,77.02
2022-10-08T21:34:18.127Z,77.77
2022-10-08T21:36:45.130Z,78.69
2022-10-08T21:39:16.649Z,79.00
2022-10-08T21:41:46.105Z,79.67
2022-10-08T21:44:13.645Z,79.96
2022-10-08T21:46:42.407Z,80.14
2022-10-08T21:49:12.814Z,80.70
2022-10-08T21:51:39.787Z,81.04
2022-10-08T21:54:07.222Z,81.25
2022-10-08T21:56:42.736Z,81.14
2022-10-08T21:59:11.598Z,81.60
2022-10-08T22:02:02.238Z,81.50
2022-10-08T22:04:32.070Z,81.76
2022-10-08T22:07:04.076Z,81.99
2022-10-08T22:09:32.277Z,82.31
2022-10-08T22:12:00.782Z,82.33
2022-10-08T22:14:27.857Z,82.86
2022-10-08T22:17:00.880Z,82.97
2022-10-08T22:19:27.813Z,83.18
2022-10-08T22:22:00.652Z,83.50
2022-10-08T22:24:27.608Z,83.01
2022-10-08T22:26:56.450Z,83.54
2022-10-08T22:29:23.388Z,83.54
2022-10-08T22:31:51.287Z,83.89
2022-10-08T22:34:21.296Z,83.98
2022-10-08T22:36:48.075Z,84.17
2022-10-08T22:39:18.063Z,84.23
2022-10-08T22:41:47.024Z,84.84
2022-10-08T22:44:13.814Z,86.09
2022-10-08T22:46:40.822Z,86.29
2022-10-08T22:49:32.167Z,86.57
2022-10-08T22:52:04.892Z,87.39
2022-10-08T22:54:32.714Z,87.77
2022-10-08T22:57:07.838Z,88.02
2022-10-08T22:59:35.807Z,87.27
2022-10-08T23:02:03.460Z,86.86
2022-10-08T23:04:32.376Z,87.15
2022-10-08T23:07:02.181Z,88.50
2022-10-08T23:09:30.012Z,89.17
2022-10-08T23:11:57.814Z,89.15
2022-10-08T23:14:28.797Z,89.66
2022-10-08T23:16:56.678Z,90.28
2022-10-08T23:19:23.535Z,90.95
2022-10-08T23:21:52.432Z,92.43
2022-10-08T23:24:21.450Z,93.14
2022-10-08T23:26:52.411Z,93.84
2022-10-08T23:29:19.364Z,94.14
2022-10-08T23:31:48.398Z,95.03
2022-10-08T23:34:17.397Z,96.18
2022-10-08T23:36:59.324Z,97.24
2022-10-08T23:39:29.610Z,98.05
2022-10-08T23:41:57.505Z,98.93
2022-10-08T23:44:26.512Z,99.81
2022-10-08T23:46:53.344Z,100.00
2022-10-08T23:49:22.218Z,100.00
2022-10-08T23:51:49.227Z,99.99
2022-10-08T23:54:40.362Z,100.00
2022-10-08T23:57:09.268Z,100.00
2022-10-08T23:59:38.151Z,100.00
